createdAt,value
2018-01-15T00:01:52.912Z,101136.00
2018-01-15T00:04:21.758Z,101134.69
2018-01-15T00:06:49.305Z,101132.16
2018-01-15T00:09:16.872Z,101129.01
2018-01-15T00:11:44.362Z,101129.23
2018-01-15T00:14:12.005Z,101127.30
2018-01-15T00:16:39.575Z,101128.91
2018-01-15T00:19:07.131Z,101121.21
2018-01-15T00:21:34.744Z,101121.53
2018-01-15T00:24:02.926Z,101116.61
2018-01-15T00:26:30.419Z,101110.64
2018-01-15T00:28:58.010Z,101112.28
2018-01-15T00:31:25.528Z,101104.82
2018-01-15T00:33:53.036Z,101099.27
2018-01-15T00:36:20.522Z,101101.16
2018-01-15T00:38:48.051Z,101103.78
2018-01-15T00:41:15.744Z,101096.32
2018-01-15T00:43:43.508Z,101098.64
2018-01-15T00:46:11.041Z,101091.48
2018-01-15T00:48:38.668Z,101093.50
2018-01-15T00:51:06.141Z,101091.09
2018-01-15T00:53:33.651Z,101092.81
2018-01-15T00:56:01.290Z,101092.19
2018-01-15T00:58:28.802Z,101086.74
2018-01-15T01:00:56.280Z,101081.01
2018-01-15T01:03:23.778Z,101082.13
2018-01-15T01:05:51.299Z,101078.85
2018-01-15T01:08:18.779Z,101085.83
2018-01-15T01:10:46.320Z,101088.86
2018-01-15T01:13:13.815Z,101081.19
2018-01-15T01:15:41.311Z,101077.65
2018-01-15T01:18:08.938Z,101078.58
2018-01-15T01:20:36.569Z,101080.00
2018-01-15T01:23:04.061Z,101078.06
2018-01-15T01:25:31.595Z,101080.09
2018-01-15T01:28:01.739Z,101070.50
2018-01-15T01:30:29.257Z,101060.81
2018-01-15T01:32:56.730Z,101061.42
2018-01-15T01:35:24.296Z,101060.77
2018-01-15T01:37:51.835Z,101061.42
2018-01-15T01:40:19.438Z,101053.85
2018-01-15T01:42:46.927Z,101054.88
2018-01-15T01:45:14.429Z,101049.91
2018-01-15T01:47:41.939Z,101045.97
2018-01-15T01:50:09.473Z,101041.42
2018-01-15T01:52:36.989Z,101046.95
2018-01-15T01:55:04.813Z,101046.16
2018-01-15T01:57:32.413Z,101041.20
2018-01-15T02:00:00.706Z,101047.56
2018-01-15T02:02:28.246Z,101037.06
2018-01-15T02:04:55.703Z,101035.38
2018-01-15T02:07:23.208Z,101023.08
2018-01-15T02:09:50.685Z,101030.95
2018-01-15T02:12:18.192Z,101021.66
2018-01-15T02:14:45.655Z,101010.26
2018-01-15T02:17:13.289Z,101012.16
2018-01-15T02:19:40.795Z,101002.69
2018-01-15T02:22:08.336Z,101006.32
2018-01-15T02:24:42.495Z,101001.97
2018-01-15T02:27:10.886Z,101001.19
2018-01-15T02:29:38.574Z,101001.89
2018-01-15T02:32:06.300Z,100999.48
2018-01-15T02:34:33.928Z,100999.29
2018-01-15T02:37:02.010Z,100993.63
2018-01-15T02:39:29.606Z,100993.42
2018-01-15T02:41:57.165Z,100984.95
2018-01-15T02:44:24.726Z,100983.16
2018-01-15T02:46:52.217Z,100983.90
2018-01-15T02:49:19.884Z,100984.19
2018-01-15T02:51:47.420Z,100975.55
2018-01-15T02:54:14.926Z,100969.13
2018-01-15T02:56:42.397Z,100974.66
2018-01-15T02:59:09.882Z,100974.39
2018-01-15T03:01:38.827Z,100974.62
2018-01-15T03:04:06.390Z,100971.91
2018-01-15T03:06:33.997Z,100966.80
2018-01-15T03:09:01.533Z,100963.39
2018-01-15T03:11:29.027Z,100957.19
2018-01-15T03:13:56.532Z,100949.33
2018-01-15T03:16:24.083Z,100942.17
2018-01-15T03:18:51.556Z,100938.67
2018-01-15T03:21:19.065Z,100927.27
2018-01-15T03:23:46.536Z,100929.30
2018-01-15T03:26:14.050Z,100926.38
2018-01-15T03:28:41.546Z,100924.44
2018-01-15T03:31:09.005Z,100915.22
2018-01-15T03:33:36.523Z,100912.19
2018-01-15T03:36:04.023Z,100917.77
2018-01-15T03:38:31.557Z,100911.66
2018-01-15T03:40:59.073Z,100911.16
2018-01-15T03:43:26.553Z,100901.80
2018-01-15T03:45:54.194Z,100900.52
2018-01-15T03:48:21.664Z,100902.85
2018-01-15T03:50:49.125Z,100905.80
2018-01-15T03:53:16.608Z,100911.73
2018-01-15T03:55:44.169Z,100908.52
2018-01-15T03:58:11.627Z,100898.75
2018-01-15T04:00:39.163Z,100903.50
2018-01-15T04:03:06.674Z,100900.18
2018-01-15T04:05:34.172Z,100888.09
2018-01-15T04:08:01.690Z,100888.71
2018-01-15T04:10:29.167Z,100886.58
2018-01-15T04:12:56.647Z,100879.83
2018-01-15T04:15:24.176Z,100876.41
2018-01-15T04:17:51.687Z,100871.97
2018-01-15T04:20:19.159Z,100865.75
2018-01-15T04:22:46.621Z,100857.08
2018-01-15T04:25:14.099Z,100847.30
2018-01-15T04:27:41.589Z,100854.06
2018-01-15T04:30:09.093Z,100842.89
2018-01-15T04:32:36.654Z,100844.53
2018-01-15T04:35:04.206Z,100846.25
2018-01-15T04:37:31.734Z,100839.80
2018-01-15T04:39:59.287Z,100839.59
2018-01-15T04:42:26.760Z,100835.27
2018-01-15T04:44:54.264Z,100834.39
2018-01-15T04:47:21.877Z,100831.88
2018-01-15T04:49:49.362Z,100833.06
2018-01-15T04:52:16.924Z,100830.75
2018-01-15T04:54:44.475Z,100828.31
2018-01-15T04:57:11.930Z,100820.78
2018-01-15T04:59:39.428Z,100820.28
2018-01-15T05:02:07.126Z,100815.12
2018-01-15T05:04:34.681Z,100812.53
2018-01-15T05:07:02.234Z,100809.12
2018-01-15T05:09:29.802Z,100804.19
2018-01-15T05:11:57.319Z,100810.13
2018-01-15T05:14:24.831Z,100807.18
2018-01-15T05:16:52.301Z,100808.13
2018-01-15T05:19:19.757Z,100808.70
2018-01-15T05:21:47.231Z,100812.77
2018-01-15T05:24:14.742Z,100806.34
2018-01-15T05:26:42.319Z,100813.79
2018-01-15T05:29:09.900Z,100815.92
2018-01-15T05:31:37.404Z,100802.73
2018-01-15T05:34:05.458Z,100801.61
2018-01-15T05:36:34.326Z,100797.09
2018-01-15T05:39:03.049Z,100800.52
2018-01-15T05:41:30.645Z,100796.02
2018-01-15T05:43:58.241Z,100798.01
2018-01-15T05:46:25.733Z,100789.58
2018-01-15T05:48:53.219Z,100785.94
2018-01-15T05:51:20.722Z,100786.88
2018-01-15T05:53:48.246Z,100778.89
2018-01-15T05:56:15.731Z,100774.66
2018-01-15T05:58:43.256Z,100782.23
2018-01-15T06:01:10.864Z,100768.34
2018-01-15T06:03:38.482Z,100774.09
2018-01-15T06:06:06.026Z,100772.80
2018-01-15T06:08:33.516Z,100774.22
2018-01-15T06:11:01.188Z,100771.41
2018-01-15T06:13:28.774Z,100770.61
2018-01-15T06:15:56.317Z,100770.52
2018-01-15T06:18:23.846Z,100765.98
2018-01-15T06:20:51.382Z,100761.95
2018-01-15T06:23:18.959Z,100764.55
2018-01-15T06:25:46.674Z,100761.55
2018-01-15T06:28:14.198Z,100767.28
2018-01-15T06:30:41.783Z,100760.97
2018-01-15T06:33:09.340Z,100757.83
2018-01-15T06:35:36.860Z,100764.77
2018-01-15T06:38:04.399Z,100765.98
2018-01-15T06:40:32.014Z,100752.92
2018-01-15T06:42:59.490Z,100756.25
2018-01-15T06:45:27.004Z,100749.52
2018-01-15T06:47:54.535Z,100742.47
2018-01-15T06:50:22.034Z,100750.91
2018-01-15T06:52:49.492Z,100748.23
2018-01-15T06:55:16.967Z,100744.69
2018-01-15T06:57:44.604Z,100741.87
2018-01-15T07:00:12.167Z,100742.91
2018-01-15T07:02:39.727Z,100735.42
2018-01-15T07:05:07.303Z,100733.65
2018-01-15T07:07:34.885Z,100727.00
2018-01-15T07:10:02.395Z,100743.41
2018-01-15T07:12:30.038Z,100742.11
2018-01-15T07:14:58.468Z,100734.88
2018-01-15T07:17:26.039Z,100736.07
2018-01-15T07:19:53.602Z,100734.34
2018-01-15T07:22:21.140Z,100735.14
2018-01-15T07:24:48.716Z,100734.03
2018-01-15T07:27:16.445Z,100726.16
2018-01-15T07:29:43.977Z,100733.33
2018-01-15T07:32:11.578Z,100728.67
2018-01-15T07:34:39.107Z,100723.45
2018-01-15T07:37:06.654Z,100721.02
2018-01-15T07:39:34.219Z,100714.20
2018-01-15T07:42:01.800Z,100718.70
2018-01-15T07:44:29.364Z,100715.05
2018-01-15T07:46:56.918Z,100714.05
2018-01-15T07:49:24.485Z,100711.41
2018-01-15T07:51:52.070Z,100710.48
2018-01-15T07:54:19.668Z,100706.50
2018-01-15T07:56:47.232Z,100706.09
2018-01-15T07:59:14.826Z,100697.28
2018-01-15T08:01:42.353Z,100695.95
2018-01-15T08:04:09.988Z,100689.30
2018-01-15T08:06:37.683Z,100691.09
2018-01-15T08:09:05.179Z,100678.66
2018-01-15T08:11:32.678Z,100679.56
2018-01-15T08:14:00.185Z,100676.56
2018-01-15T08:16:27.735Z,100675.52
2018-01-15T08:18:55.258Z,100682.23
2018-01-15T08:21:22.779Z,100679.12
2018-01-15T08:23:50.352Z,100671.67
2018-01-15T08:26:17.814Z,100666.22
2018-01-15T08:28:45.379Z,100672.84
2018-01-15T08:31:13.712Z,100667.02
2018-01-15T08:33:41.382Z,100656.96
2018-01-15T08:36:08.922Z,100657.34
2018-01-15T08:38:36.622Z,100640.87
2018-01-15T08:41:04.116Z,100637.70
2018-01-15T08:43:31.979Z,100640.52
2018-01-15T08:45:59.621Z,100639.20
2018-01-15T08:48:27.205Z,100633.73
2018-01-15T08:50:54.761Z,100634.72
2018-01-15T08:53:22.376Z,100624.73
2018-01-15T08:55:50.017Z,100623.41
2018-01-15T08:58:17.608Z,100625.14
2018-01-15T09:00:45.203Z,100619.56
2018-01-15T09:03:12.708Z,100619.30
2018-01-15T09:05:40.258Z,100610.38
2018-01-15T09:08:07.820Z,100623.34
2018-01-15T09:10:35.444Z,100618.28
2018-01-15T09:13:02.906Z,100623.08
2018-01-15T09:15:30.410Z,100615.84
2018-01-15T09:17:57.916Z,100610.26
2018-01-15T09:20:25.589Z,100607.03
2018-01-15T09:22:53.249Z,100610.73
2018-01-15T09:25:20.818Z,100599.00
2018-01-15T09:27:48.455Z,100606.87
2018-01-15T09:30:16.104Z,100596.68
2018-01-15T09:32:43.654Z,100593.56
2018-01-15T09:35:11.243Z,100593.09
2018-01-15T09:37:38.815Z,100586.80
2018-01-15T09:40:06.414Z,100578.69
2018-01-15T09:42:34.029Z,100573.52
2018-01-15T09:45:01.550Z,100567.14
2018-01-15T09:47:29.123Z,100562.92
2018-01-15T09:49:56.623Z,100564.37
2018-01-15T09:52:24.161Z,100552.12
2018-01-15T09:54:51.692Z,100539.99
2018-01-15T09:57:19.327Z,100535.94
2018-01-15T09:59:46.873Z,100529.63
2018-01-15T10:02:14.433Z,100522.31
2018-01-15T10:04:42.102Z,100520.62
2018-01-15T10:07:09.701Z,100514.39
2018-01-15T10:09:37.273Z,100504.00
2018-01-15T10:12:04.776Z,100504.13
2018-01-15T10:14:32.294Z,100494.67
2018-01-15T10:16:59.809Z,100488.49
2018-01-15T10:19:27.360Z,100483.30
2018-01-15T10:21:54.974Z,100480.30
2018-01-15T10:24:22.545Z,100475.30
2018-01-15T10:26:50.193Z,100465.84
2018-01-15T10:29:18.064Z,100462.44
2018-01-15T10:31:45.694Z,100452.03
2018-01-15T10:34:13.279Z,100448.84
2018-01-15T10:36:40.933Z,100437.47
2018-01-15T10:39:08.524Z,100439.42
2018-01-15T10:41:36.034Z,100440.86
2018-01-15T10:44:03.543Z,100425.98
2018-01-15T10:46:31.115Z,100428.17
2018-01-15T10:48:58.622Z,100419.64
2018-01-15T10:51:26.865Z,100423.63
2018-01-15T10:53:54.566Z,100403.18
2018-01-15T10:56:22.084Z,100396.31
2018-01-15T10:58:49.680Z,100389.62
2018-01-15T11:01:22.989Z,100380.17
2018-01-15T11:03:50.813Z,100378.36
2018-01-15T11:06:18.549Z,100373.39
2018-01-15T11:08:46.288Z,100371.83
2018-01-15T11:11:14.250Z,100364.47
2018-01-15T11:13:42.381Z,100356.56
2018-01-15T11:16:16.495Z,100357.05
2018-01-15T11:18:52.401Z,100337.80
2018-01-15T11:21:22.011Z,100337.38
2018-01-15T11:23:52.405Z,100327.77
2018-01-15T11:31:29.906Z,100310.97
2018-01-15T11:33:59.302Z,100306.13
2018-01-15T11:39:09.033Z,100300.94
2018-01-15T11:41:38.534Z,100297.42
2018-01-15T11:44:06.043Z,100287.73
2018-01-15T11:46:34.369Z,100276.23
2018-01-15T11:49:04.006Z,100271.20
2018-01-15T11:51:31.584Z,100265.55
2018-01-15T11:53:59.197Z,100254.27
2018-01-15T11:56:26.811Z,100242.65
2018-01-15T11:58:54.308Z,100243.23
2018-01-15T12:01:21.782Z,100225.38
2018-01-15T12:03:49.351Z,100222.56
2018-01-15T12:06:16.815Z,100211.11
2018-01-15T12:08:44.300Z,100206.05
2018-01-15T12:11:12.007Z,100196.69
2018-01-15T12:13:39.493Z,100193.21
2018-01-15T12:16:07.018Z,100183.27
2018-01-15T12:18:34.664Z,100170.96
2018-01-15T12:21:02.359Z,100184.66
2018-01-15T12:23:30.007Z,100175.94
2018-01-15T12:25:57.601Z,100179.23
2018-01-15T12:28:25.177Z,100166.58
2018-01-15T12:30:52.791Z,100166.72
2018-01-15T12:33:20.425Z,100159.01
2018-01-15T12:35:47.968Z,100160.20
2018-01-15T12:38:15.421Z,100150.77
2018-01-15T12:40:42.960Z,100147.98
2018-01-15T12:43:10.464Z,100148.89
2018-01-15T12:45:38.147Z,100130.15
2018-01-15T12:48:05.789Z,100122.67
2018-01-15T12:50:33.496Z,100119.78
2018-01-15T12:53:01.061Z,100102.81
2018-01-15T12:55:29.471Z,100104.78
2018-01-15T12:57:57.003Z,100103.02
2018-01-15T13:00:24.589Z,100101.66
2018-01-15T13:02:52.130Z,100110.56
2018-01-15T13:05:19.665Z,100099.95
2018-01-15T13:07:59.180Z,100096.10
2018-01-15T13:10:26.790Z,100087.14
2018-01-15T13:12:54.438Z,100086.73
2018-01-15T13:15:22.618Z,100084.79
2018-01-15T13:17:50.151Z,100071.23
2018-01-15T13:20:17.732Z,100071.33
2018-01-15T13:22:45.339Z,100062.30
2018-01-15T13:25:12.865Z,100051.23
2018-01-15T13:27:40.330Z,100051.10
2018-01-15T13:30:08.723Z,100034.14
2018-01-15T13:32:36.256Z,100031.64
2018-01-15T13:35:03.878Z,100022.19
2018-01-15T13:37:31.410Z,100015.27
2018-01-15T13:39:59.047Z,100017.95
2018-01-15T13:42:26.753Z,100008.23
2018-01-15T13:44:54.817Z,100002.70
2018-01-15T13:47:22.439Z,99991.43
2018-01-15T13:49:49.992Z,99999.11
2018-01-15T13:52:17.660Z,99987.46
2018-01-15T13:54:45.176Z,99992.86
2018-01-15T13:57:15.410Z,99989.64
2018-01-15T13:59:42.931Z,99984.33
2018-01-15T14:02:10.630Z,99977.16
2018-01-15T14:04:38.736Z,99970.30
2018-01-15T14:07:06.295Z,99968.47
2018-01-15T14:09:34.021Z,99967.98
2018-01-15T14:12:01.614Z,99959.72
2018-01-15T14:14:29.192Z,99958.80
2018-01-15T14:16:56.708Z,99951.84
2018-01-15T14:19:24.379Z,99944.44
2018-01-15T14:21:51.940Z,99945.23
2018-01-15T14:24:19.547Z,99939.69
2018-01-15T14:26:47.156Z,99921.41
2018-01-15T14:29:14.773Z,99919.26
2018-01-15T14:34:24.273Z,99903.23
2018-01-15T14:36:51.951Z,99897.56
2018-01-15T14:39:19.747Z,99874.28
2018-01-15T14:41:47.371Z,99878.16
2018-01-15T14:44:14.927Z,99869.45
2018-01-15T14:46:42.536Z,99872.80
2018-01-15T14:49:10.023Z,99863.95
2018-01-15T14:51:37.600Z,99844.98
2018-01-15T14:54:05.296Z,99836.94
2018-01-15T14:56:33.035Z,99850.10
2018-01-15T14:59:00.634Z,99840.56
2018-01-15T15:01:28.165Z,99845.42
2018-01-15T15:03:55.683Z,99833.33
2018-01-15T15:06:23.240Z,99830.81
2018-01-15T15:08:50.700Z,99826.70
2018-01-15T15:11:18.211Z,99817.23
2018-01-15T15:13:45.750Z,99813.80
2018-01-15T15:16:13.298Z,99810.38
2018-01-15T15:18:40.888Z,99794.05
2018-01-15T15:21:08.419Z,99785.11
2018-01-15T15:23:35.889Z,99774.84
2018-01-15T15:26:03.431Z,99765.36
2018-01-15T15:28:31.053Z,99765.89
2018-01-15T15:30:58.651Z,99766.94
2018-01-15T15:33:26.257Z,99771.00
2018-01-15T15:35:53.821Z,99765.32
2018-01-15T15:38:21.346Z,99764.41
2018-01-15T15:40:49.350Z,99749.66
2018-01-15T15:43:16.854Z,99743.75
2018-01-15T15:45:44.337Z,99725.59
2018-01-15T15:48:12.008Z,99726.65
2018-01-15T15:50:39.489Z,99721.25
2018-01-15T15:53:07.087Z,99707.03
2018-01-15T15:55:37.462Z,99706.09
2018-01-15T15:58:05.036Z,99707.67
2018-01-15T16:00:32.672Z,99702.13
2018-01-15T16:03:00.230Z,99691.36
2018-01-15T16:05:27.753Z,99687.28
2018-01-15T16:07:55.253Z,99678.42
2018-01-15T16:10:22.823Z,99663.03
2018-01-15T16:12:50.345Z,99662.48
2018-01-15T16:15:17.921Z,99656.58
2018-01-15T16:17:45.548Z,99653.55
2018-01-15T16:20:13.139Z,99644.34
2018-01-15T16:22:52.851Z,99630.00
2018-01-15T16:25:20.427Z,99632.77
2018-01-15T16:27:48.105Z,99641.09
2018-01-15T16:30:15.617Z,99636.86
2018-01-15T16:32:43.264Z,99631.87
2018-01-15T16:35:10.806Z,99619.07
2018-01-15T16:37:38.365Z,99612.11
2018-01-15T16:40:05.893Z,99608.30
2018-01-15T16:42:33.455Z,99598.55
2018-01-15T16:45:01.215Z,99582.34
2018-01-15T16:47:29.476Z,99584.61
2018-01-15T16:49:57.050Z,99571.44
2018-01-15T16:52:24.642Z,99567.86
2018-01-15T16:54:52.278Z,99560.37
2018-01-15T16:57:19.821Z,99555.23
2018-01-15T16:59:47.441Z,99553.28
2018-01-15T17:02:15.034Z,99542.98
2018-01-15T17:04:42.590Z,99529.81
2018-01-15T17:07:10.293Z,99525.73
2018-01-15T17:09:37.854Z,99524.95
2018-01-15T17:12:05.725Z,99527.59
2018-01-15T17:14:33.922Z,99517.59
2018-01-15T17:17:02.638Z,99515.88
2018-01-15T17:19:30.178Z,99513.74
2018-01-15T17:21:57.709Z,99511.65
2018-01-15T17:24:25.374Z,99503.21
2018-01-15T17:26:53.093Z,99512.43
2018-01-15T17:29:20.983Z,99508.88
2018-01-15T17:31:48.537Z,99500.20
2018-01-15T17:34:16.116Z,99508.88
2018-01-15T17:36:43.696Z,99503.48
2018-01-15T17:39:11.441Z,99509.42
2018-01-15T17:41:39.163Z,99502.44
2018-01-15T17:44:06.752Z,99491.91
2018-01-15T17:46:34.318Z,99485.72
2018-01-15T17:49:01.841Z,99480.83
2018-01-15T17:51:29.405Z,99487.95
2018-01-15T17:53:57.319Z,99479.41
2018-01-15T17:56:24.850Z,99483.37
2018-01-15T17:58:52.444Z,99477.42
2018-01-15T18:01:20.057Z,99464.53
2018-01-15T18:03:47.668Z,99466.63
2018-01-15T18:06:15.260Z,99461.36
2018-01-15T18:08:42.832Z,99466.63
2018-01-15T18:11:10.320Z,99460.72
2018-01-15T18:13:39.441Z,99445.56
2018-01-15T18:16:08.219Z,99432.03
2018-01-15T18:18:35.857Z,99420.29
2018-01-15T18:21:03.422Z,99408.08
2018-01-15T18:23:30.942Z,99407.67
2018-01-15T18:25:58.737Z,99400.55
2018-01-15T18:28:26.316Z,99396.50
2018-01-15T18:30:53.978Z,99380.80
2018-01-15T18:33:21.567Z,99390.97
2018-01-15T18:35:50.036Z,99373.31
2018-01-15T18:38:17.762Z,99367.14
2018-01-15T18:40:45.663Z,99357.52
2018-01-15T18:43:13.471Z,99350.67
2018-01-15T18:45:41.091Z,99343.33
2018-01-15T18:48:08.690Z,99343.05
2018-01-15T18:50:36.272Z,99348.72
2018-01-15T18:53:04.041Z,99335.16
2018-01-15T18:55:31.751Z,99327.78
2018-01-15T18:57:59.327Z,99317.91
2018-01-15T19:00:27.085Z,99309.89
2018-01-15T19:02:54.639Z,99302.67
2018-01-15T19:05:22.301Z,99301.77
2018-01-15T19:07:50.002Z,99305.72
2018-01-15T19:10:17.549Z,99286.89
2018-01-15T19:12:45.176Z,99280.85
2018-01-15T19:15:12.676Z,99270.95
2018-01-15T19:17:40.960Z,99260.16
2018-01-15T19:20:08.539Z,99247.14
2018-01-15T19:22:36.070Z,99250.16
2018-01-15T19:25:03.622Z,99248.86
2018-01-15T19:27:31.182Z,99235.56
2018-01-15T19:29:58.702Z,99228.06
2018-01-15T19:32:27.117Z,99213.05
2018-01-15T19:35:00.176Z,99224.26
2018-01-15T19:37:42.687Z,99213.06
2018-01-15T19:40:10.372Z,99204.25
2018-01-15T19:42:38.040Z,99184.10
2018-01-15T19:45:11.500Z,99184.38
2018-01-15T19:47:44.625Z,99165.83
2018-01-15T19:50:18.777Z,99156.35
2018-01-15T19:52:52.138Z,99155.94
2018-01-15T19:55:25.201Z,99159.62
2018-01-15T19:57:58.446Z,99162.25
2018-01-15T20:00:31.454Z,99162.39
2018-01-15T20:03:04.721Z,99167.25
2018-01-15T20:05:37.857Z,99173.55
2018-01-15T20:08:10.896Z,99153.06
2018-01-15T20:10:59.267Z,99140.40
2018-01-15T20:13:26.754Z,99125.00
2018-01-15T20:15:54.375Z,99132.92
2018-01-15T20:18:22.005Z,99111.99
2018-01-15T20:20:49.560Z,99104.25
2018-01-15T20:23:18.155Z,99092.42
2018-01-15T20:25:55.349Z,99075.07
2018-01-15T20:28:22.936Z,99064.02
2018-01-15T20:30:50.555Z,99053.75
2018-01-15T20:33:18.216Z,99057.98
2018-01-15T20:35:46.672Z,99063.64
2018-01-15T20:38:14.356Z,99038.98
2018-01-15T20:40:42.026Z,99042.30
2018-01-15T20:43:09.838Z,99037.00
2018-01-15T20:45:37.430Z,99028.70
2018-01-15T20:48:04.911Z,99022.12
2018-01-15T20:50:32.476Z,99011.64
2018-01-15T20:53:00.095Z,98998.19
2018-01-15T20:55:27.811Z,98983.50
2018-01-15T20:57:55.353Z,98967.14
2018-01-15T21:00:23.037Z,98969.36
2018-01-15T21:02:50.617Z,98969.50
2018-01-15T21:05:18.233Z,98969.00
2018-01-15T21:07:45.794Z,98958.48
2018-01-15T21:10:13.424Z,98960.69
2018-01-15T21:12:40.991Z,98942.27
2018-01-15T21:15:08.739Z,98937.50
2018-01-15T21:17:36.368Z,98929.49
2018-01-15T21:20:04.873Z,98921.69
2018-01-15T21:22:32.443Z,98919.20
2018-01-15T21:25:00.089Z,98902.61
2018-01-15T21:27:27.712Z,98883.16
2018-01-15T21:29:55.384Z,98878.91
2018-01-15T21:32:23.018Z,98873.90
2018-01-15T21:34:50.559Z,98865.08
2018-01-15T21:37:18.148Z,98867.69
2018-01-15T21:39:45.814Z,98849.76
2018-01-15T21:42:13.616Z,98830.81
2018-01-15T21:44:41.108Z,98838.03
2018-01-15T21:47:08.992Z,98830.53
2018-01-15T21:49:36.497Z,98818.41
2018-01-15T21:52:04.260Z,98814.17
2018-01-15T21:54:31.822Z,98808.14
2018-01-15T21:56:59.408Z,98800.58
2018-01-15T21:59:26.962Z,98779.52
2018-01-15T22:01:54.512Z,98774.11
2018-01-15T22:04:22.095Z,98765.19
2018-01-15T22:06:49.661Z,98768.48
2018-01-15T22:09:17.186Z,98765.02
2018-01-15T22:11:45.520Z,98756.28
2018-01-15T22:14:13.183Z,98766.78
2018-01-15T22:16:40.656Z,98762.98
2018-01-15T22:19:08.141Z,98744.30
2018-01-15T22:21:35.696Z,98721.37
2018-01-15T22:24:03.179Z,98706.52
2018-01-15T22:26:30.682Z,98709.63
2018-01-15T22:28:58.239Z,98695.55
2018-01-15T22:31:25.773Z,98700.79
2018-01-15T22:33:53.287Z,98699.36
2018-01-15T22:36:20.916Z,98693.59
2018-01-15T22:38:48.693Z,98676.88
2018-01-15T22:41:16.238Z,98648.64
2018-01-15T22:43:43.814Z,98646.01
2018-01-15T22:46:11.342Z,98636.91
2018-01-15T22:48:38.831Z,98632.33
2018-01-15T22:51:06.434Z,98636.02
2018-01-15T22:53:34.124Z,98619.23
2018-01-15T22:56:01.720Z,98622.92
2018-01-15T22:58:29.250Z,98634.63
2018-01-15T23:00:56.754Z,98630.56
2018-01-15T23:03:24.251Z,98614.14
2018-01-15T23:05:52.005Z,98607.00
2018-01-15T23:08:19.650Z,98600.45
2018-01-15T23:10:47.253Z,98596.79
2018-01-15T23:13:14.793Z,98596.06
2018-01-15T23:15:42.358Z,98582.05
2018-01-15T23:18:09.884Z,98570.63
2018-01-15T23:20:37.426Z,98553.77
2018-01-15T23:23:05.260Z,98540.34
2018-01-15T23:25:32.872Z,98543.48
2018-01-15T23:28:00.416Z,98523.73
2018-01-15T23:30:28.017Z,98527.72
2018-01-15T23:32:55.568Z,98509.47
2018-01-15T23:35:23.053Z,98519.76
2018-01-15T23:37:50.616Z,98500.77
2018-01-15T23:40:18.648Z,98501.07
2018-01-15T23:42:46.154Z,98500.97
2018-01-15T23:45:13.670Z,98507.30
2018-01-15T23:47:41.223Z,98507.34
2018-01-15T23:50:08.754Z,98520.19
2018-01-15T23:52:36.242Z,98487.13
2018-01-15T23:55:03.866Z,98476.80
2018-01-15T23:57:31.420Z,98479.02
2018-01-15T23:59:59.311Z,98474.97
